Time;durP1;ratioP1;P1;durP2;ratioP2;P2;SDS_P1;SDS_P2;PMS_P1;PMS_P2;Temp;Humidity;BMP_temperature;BMP_pressure;BME280_temperature;BME280_humidity;BME280_pressure;Samples;Min_cycle;Max_cycle;Signal;HPM_P1;HPM_P2
2021/07/16 00:04:52;;;;;;;27.50;10.75;;;;;;;16.20;88.49;101931.78;10461894;28;20060;-63
2021/07/16 00:09:54;;;;;;;23.05;11.75;;;;;;;16.19;88.83;101937.16;10461511;28;20049;-64
2021/07/16 00:14:56;;;;;;;15.63;8.68;;;;;;;16.07;88.73;101944.06;10460764;28;20404;-64
2021/07/16 00:19:58;;;;;;;25.00;11.38;;;;;;;16.03;89.16;101942.59;10461060;28;20072;-65
2021/07/16 00:25:02;;;;;;;24.48;10.98;;;;;;;16.26;88.61;101946.44;10461412;28;20052;-64
2021/07/16 00:30:07;;;;;;;25.58;9.30;;;;;;;16.15;88.45;101950.59;10459679;28;20049;-62
2021/07/16 00:35:10;;;;;;;21.08;11.43;;;;;;;16.06;88.39;101953.81;10460583;28;20405;-65
2021/07/16 00:40:13;;;;;;;18.80;9.05;;;;;;;15.98;88.48;101958.72;10460598;28;20131;-63
2021/07/16 00:45:15;;;;;;;13.63;9.40;;;;;;;15.98;88.37;101953.41;10460184;28;20053;-64
2021/07/16 00:50:23;;;;;;;20.25;9.60;;;;;;;15.80;88.71;101947.47;10460480;28;20049;-63
2021/07/16 00:55:26;;;;;;;11.80;8.93;;;;;;;15.90;88.47;101960.97;10458832;28;20049;-64
2021/07/16 01:00:28;;;;;;;17.58;11.50;;;;;;;15.94;87.88;101962.50;10459034;28;20049;-63
2021/07/16 01:05:31;;;;;;;18.23;7.95;;;;;;;15.92;87.91;101948.50;10459608;28;20132;-62
2021/07/16 01:10:33;;;;;;;15.45;8.90;;;;;;;15.68;88.51;101948.19;10459474;28;20057;-64
2021/07/16 01:15:36;;;;;;;18.75;9.27;;;;;;;15.91;87.92;101957.41;10457892;28;20405;-63
2021/07/16 01:20:38;;;;;;;10.82;7.70;;;;;;;16.04;87.90;101957.47;10458241;28;20151;-63
2021/07/16 01:25:41;;;;;;;15.90;9.07;;;;;;;15.98;88.57;101956.91;10458430;28;20409;-64
2021/07/16 01:30:44;;;;;;;15.05;9.00;;;;;;;15.95;87.94;101965.03;10458567;28;20060;-62
2021/07/16 01:35:46;;;;;;;13.32;8.55;;;;;;;15.76;88.28;101962.66;10457282;28;20053;-63
2021/07/16 01:40:49;;;;;;;20.50;10.65;;;;;;;15.81;88.47;101970.31;10458211;28;20049;-63
2021/07/16 01:45:51;;;;;;;16.45;11.15;;;;;;;15.92;87.66;101972.28;10458123;28;20051;-64
2021/07/16 01:50:54;;;;;;;15.93;9.85;;;;;;;16.04;88.42;101975.94;10457992;28;20059;-62
2021/07/16 01:55:56;;;;;;;20.77;10.27;;;;;;;15.95;88.01;101970.31;10457826;28;20044;-64
2021/07/16 02:00:59;;;;;;;26.65;11.15;;;;;;;15.74;88.57;101969.78;10457327;28;20482;-63
2021/07/16 02:06:01;;;;;;;18.23;9.13;;;;;;;15.98;87.39;101974.56;10457234;28;20123;-64
2021/07/16 02:11:04;;;;;;;20.27;10.95;;;;;;;15.83;88.78;101971.06;10457360;28;20057;-63
2021/07/16 02:16:06;;;;;;;20.13;10.70;;;;;;;15.92;88.26;101983.72;10456937;28;20048;-63
2021/07/16 02:21:09;;;;;;;20.90;9.85;;;;;;;15.93;87.62;101968.69;10457082;28;20081;-64
2021/07/16 02:26:11;;;;;;;15.25;9.77;;;;;;;15.89;86.73;101970.69;10456513;28;20052;-62
2021/07/16 02:31:14;;;;;;;25.80;10.57;;;;;;;15.57;88.08;101986.66;10455798;28;20057;-62
2021/07/16 02:36:18;;;;;;;17.60;9.45;;;;;;;15.60;87.18;101994.41;10456005;28;20055;-63
2021/07/16 02:41:20;;;;;;;26.75;10.88;;;;;;;15.48;87.88;101994.25;10456331;28;20478;-63
2021/07/16 02:46:22;;;;;;;22.42;11.40;;;;;;;15.63;88.13;101987.22;10454946;28;20049;-64
2021/07/16 02:51:25;;;;;;;16.70;9.32;;;;;;;15.71;86.48;101974.41;10455362;28;20055;-63
2021/07/16 02:56:27;;;;;;;18.42;8.95;;;;;;;15.61;86.57;101979.41;10455720;28;20080;-62
2021/07/16 03:01:29;;;;;;;27.95;10.43;;;;;;;15.53;86.97;101976.34;10456313;28;20060;-64
2021/07/16 03:06:32;;;;;;;25.88;11.52;;;;;;;15.55;86.94;101980.63;10455895;28;20076;-63
2021/07/16 03:11:36;;;;;;;22.73;11.38;;;;;;;15.43;86.94;101978.69;10456263;28;20060;-62
2021/07/16 03:16:39;;;;;;;28.15;11.75;;;;;;;15.50;86.84;101987.09;10455528;28;20485;-63
2021/07/16 03:21:41;;;;;;;25.05;12.63;;;;;;;15.46;87.78;101986.44;10455907;28;20118;-64
2021/07/16 03:26:43;;;;;;;20.95;11.18;;;;;;;15.27;87.50;101988.47;10455134;28;20045;-64
2021/07/16 03:31:46;;;;;;;22.92;10.95;;;;;;;15.25;86.93;101991.19;10455796;28;20056;-64
2021/07/16 03:36:48;;;;;;;23.02;10.63;;;;;;;15.27;87.12;101991.13;10455209;28;20041;-63
2021/07/16 03:41:50;;;;;;;22.42;9.32;;;;;;;15.34;85.59;102005.63;10455040;28;20048;-62
2021/07/16 03:46:53;;;;;;;27.92;10.48;;;;;;;15.22;86.94;102002.75;10457396;28;20048;-62
2021/07/16 03:51:58;;;;;;;24.95;9.40;;;;;;;15.16;85.85;102012.81;10462639;28;20053;-63
2021/07/16 03:57:01;;;;;;;25.45;8.80;;;;;;;15.16;86.11;102012.81;10462226;28;20052;-63
2021/07/16 04:02:04;;;;;;;19.77;9.20;;;;;;;15.20;85.66;102017.84;10462362;28;20049;-63
2021/07/16 04:07:09;;;;;;;15.73;7.60;;;;;;;15.27;85.79;102005.13;10462179;28;20052;-63
2021/07/16 04:12:16;;;;;;;18.92;8.02;;;;;;;15.21;86.36;102008.13;10461735;28;20049;-63
2021/07/16 04:17:23;;;;;;;24.38;9.38;;;;;;;15.23;85.31;102012.38;10460195;28;20053;-63
2021/07/16 04:22:26;;;;;;;16.95;8.40;;;;;;;15.17;85.70;101996.91;10461879;28;20045;-63
2021/07/16 04:27:28;;;;;;;17.92;8.07;;;;;;;15.14;85.97;102010.25;10460905;28;20056;-62
2021/07/16 04:32:30;;;;;;;20.33;9.45;;;;;;;15.15;85.73;102013.78;10461167;28;20370;-63
2021/07/16 04:37:34;;;;;;;16.20;6.90;;;;;;;15.07;84.72;102023.91;10459168;28;20501;-64
2021/07/16 04:42:36;;;;;;;16.67;6.65;;;;;;;15.29;85.96;102028.81;10460862;28;20045;-64
2021/07/16 04:47:39;;;;;;;25.17;8.27;;;;;;;15.44;84.34;102030.53;10460612;28;20041;-63
2021/07/16 04:52:47;;;;;;;17.48;8.05;;;;;;;15.42;85.50;102037.72;10459130;28;20045;-62
2021/07/16 04:57:49;;;;;;;20.80;8.07;;;;;;;15.31;85.35;102045.38;10458555;28;20051;-63
2021/07/16 05:02:52;;;;;;;26.27;8.35;;;;;;;15.30;85.02;102056.88;10458719;28;20409;-64
2021/07/16 05:07:54;;;;;;;17.38;8.27;;;;;;;15.31;85.36;102059.41;10459425;28;20059;-62
2021/07/16 05:12:57;;;;;;;21.40;8.15;;;;;;;15.49;84.39;102056.69;10458965;28;20056;-62
2021/07/16 05:17:59;;;;;;;20.48;6.35;;;;;;;15.36;83.80;102065.28;10458821;28;20068;-62
2021/07/16 05:23:02;;;;;;;16.02;6.95;;;;;;;15.57;84.25;102057.91;10459208;28;20044;-62
2021/07/16 05:28:04;;;;;;;25.48;7.15;;;;;;;15.63;83.51;102066.41;10458490;28;20056;-61
2021/07/16 05:33:07;;;;;;;23.15;8.35;;;;;;;15.69;84.76;102072.19;10458691;28;20049;-64
2021/07/16 05:38:10;;;;;;;17.38;7.15;;;;;;;15.84;83.93;102073.13;10458100;28;20055;-63
2021/07/16 05:43:12;;;;;;;21.30;7.72;;;;;;;15.79;84.06;102069.91;10458875;28;20056;-62
2021/07/16 05:48:15;;;;;;;19.90;7.38;;;;;;;15.55;84.35;102069.50;10457679;28;20497;-63
2021/07/16 05:53:17;;;;;;;23.75;7.28;;;;;;;15.72;83.95;102079.09;10458253;28;20045;-63
2021/07/16 05:58:20;;;;;;;22.50;7.20;;;;;;;15.96;83.90;102088.22;10457366;28;20045;-62
2021/07/16 06:03:22;;;;;;;21.02;7.85;;;;;;;16.10;83.09;102086.53;10457407;28;20045;-63
2021/07/16 06:08:25;;;;;;;21.25;6.68;;;;;;;15.92;84.10;102091.13;10457071;28;20104;-64
2021/07/16 06:13:27;;;;;;;24.42;7.22;;;;;;;15.74;83.97;102093.06;10457078;28;20056;-63
2021/07/16 06:18:30;;;;;;;20.27;6.40;;;;;;;16.05;83.17;102088.63;10457122;28;20056;-62
2021/07/16 06:23:32;;;;;;;25.00;7.03;;;;;;;16.10;83.95;102094.47;10457114;28;20048;-63
2021/07/16 06:28:34;;;;;;;16.90;5.68;;;;;;;16.23;82.21;102094.59;10456397;28;20049;-63
2021/07/16 06:33:37;;;;;;;14.30;5.80;;;;;;;16.11;82.44;102101.47;10456862;28;20053;-62
2021/07/16 06:38:39;;;;;;;20.83;6.00;;;;;;;16.35;83.24;102101.75;10456159;28;20401;-63
2021/07/16 06:43:41;;;;;;;18.85;6.00;;;;;;;16.46;82.58;102101.13;10457088;28;20056;-63
2021/07/16 06:48:47;;;;;;;17.05;5.95;;;;;;;16.19;81.51;102101.84;10456297;28;20070;-63
2021/07/16 06:53:49;;;;;;;11.00;4.63;;;;;;;16.44;81.18;102095.91;10456712;28;20056;-63
2021/07/16 06:58:52;;;;;;;24.13;6.05;;;;;;;16.47;81.38;102100.16;10457016;28;20045;-62
2021/07/16 07:03:56;;;;;;;21.50;5.35;;;;;;;16.39;80.95;102097.13;10456138;28;20048;-62
2021/07/16 07:08:58;;;;;;;19.45;5.82;;;;;;;16.40;81.81;102110.25;10456261;28;20045;-62
2021/07/16 07:14:01;;;;;;;25.77;5.97;;;;;;;16.26;81.08;102099.69;10455889;28;20064;-63
2021/07/16 07:19:04;;;;;;;20.75;5.90;;;;;;;16.24;82.12;102115.63;10455728;28;20052;-63
2021/07/16 07:24:06;;;;;;;22.27;5.85;;;;;;;16.38;82.27;102108.66;10463023;28;20049;-63
2021/07/16 07:29:08;;;;;;;25.67;5.60;;;;;;;16.35;80.87;102107.03;10463088;28;20052;-62
2021/07/16 07:34:12;;;;;;;18.15;4.97;;;;;;;16.53;80.70;102134.16;10463040;28;20489;-65
2021/07/16 07:39:14;;;;;;;17.55;5.20;;;;;;;16.56;80.91;102131.31;10461735;28;20131;-63
2021/07/16 07:44:17;;;;;;;20.50;6.03;;;;;;;16.56;81.82;102131.31;10461501;28;20481;-63
2021/07/16 07:49:19;;;;;;;22.52;6.65;;;;;;;16.53;80.94;102136.78;10462217;28;20147;-63
2021/07/16 07:54:22;;;;;;;17.65;5.15;;;;;;;16.62;80.30;102135.38;10462257;28;20497;-64
2021/07/16 07:59:25;;;;;;;17.55;5.93;;;;;;;16.79;79.87;102132.50;10461983;28;20400;-62
2021/07/16 08:04:27;;;;;;;18.65;6.20;;;;;;;16.48;79.83;102138.88;10460946;28;20052;-63
2021/07/16 08:09:30;;;;;;;18.33;5.13;;;;;;;16.72;79.59;102149.72;10461856;28;20055;-63
2021/07/16 08:14:32;;;;;;;26.20;5.43;;;;;;;16.89;77.01;102148.69;10460600;28;20060;-63
2021/07/16 08:19:35;;;;;;;25.25;6.78;;;;;;;17.15;78.81;102144.41;10461763;28;20049;-63
2021/07/16 08:24:37;;;;;;;22.23;6.13;;;;;;;17.04;79.59;102149.53;10461201;28;20049;-63
2021/07/16 08:29:40;;;;;;;21.13;5.85;;;;;;;17.12;79.52;102159.66;10460688;28;20507;-63
2021/07/16 08:34:42;;;;;;;19.42;5.38;;;;;;;17.40;79.47;102166.63;10459606;28;20493;-62
2021/07/16 08:39:44;;;;;;;18.67;5.18;;;;;;;17.55;76.89;102152.44;10460346;28;20523;-63
2021/07/16 08:44:47;;;;;;;20.20;6.70;;;;;;;17.81;78.20;102155.97;10460496;28;20080;-63
2021/07/16 08:49:50;;;;;;;22.10;6.20;;;;;;;18.15;74.86;102152.91;10459143;28;20053;-63
2021/07/16 08:54:53;;;;;;;21.98;5.05;;;;;;;17.70;76.22;102168.25;10458708;28;20045;-62
2021/07/16 08:59:55;;;;;;;18.58;5.93;;;;;;;18.26;75.68;102165.44;10459685;28;20053;-64
2021/07/16 09:05:01;;;;;;;16.92;4.78;;;;;;;18.15;75.21;102171.47;10459189;28;20045;-63
2021/07/16 09:10:08;;;;;;;17.10;5.30;;;;;;;18.23;77.30;102166.47;10458546;28;20051;-63
2021/07/16 09:15:16;;;;;;;17.50;5.03;;;;;;;17.76;76.94;102173.16;10457714;28;20052;-64
2021/07/16 09:20:25;;;;;;;19.77;4.95;;;;;;;18.00;76.38;102170.69;10457957;28;20045;-63
2021/07/16 09:25:28;;;;;;;24.02;6.60;;;;;;;17.90;76.93;102175.75;10458794;28;20511;-63
2021/07/16 09:30:30;;;;;;;15.55;4.88;;;;;;;18.56;76.80;102171.28;10458331;28;20049;-66
2021/07/16 09:35:38;;;;;;;22.13;5.78;;;;;;;18.56;75.95;102189.00;10458373;28;20059;-63
2021/07/16 09:41:08;;;;;;;19.25;6.63;;;;;;;18.96;73.57;102188.00;10458221;28;20076;-64
2021/07/16 09:46:10;;;;;;;19.42;5.50;;;;;;;18.36;75.10;102182.41;10458077;28;20049;-64
2021/07/16 09:51:29;;;;;;;16.83;6.03;;;;;;;17.85;75.65;102188.41;10458382;28;20052;-66
2021/07/16 09:56:36;;;;;;;24.02;6.43;;;;;;;17.62;76.00;102195.25;10457562;28;20049;-64
2021/07/16 10:01:40;;;;;;;22.80;6.20;;;;;;;17.69;78.10;102193.03;10457843;28;20040;-63
2021/07/16 10:06:51;;;;;;;21.42;6.05;;;;;;;17.88;77.32;102195.34;10457131;28;20080;-63
2021/07/16 10:11:56;;;;;;;25.85;7.50;;;;;;;17.67;78.77;102198.44;10457806;28;20059;-64
2021/07/16 10:16:59;;;;;;;30.42;6.63;;;;;;;17.97;79.93;102197.38;10457265;28;20094;-64
2021/07/16 10:22:03;;;;;;;24.25;6.25;;;;;;;18.54;77.86;102206.78;10457502;28;20040;-64
2021/07/16 10:27:06;;;;;;;20.42;5.93;;;;;;;18.71;76.32;102218.88;10456550;28;20053;-64
2021/07/16 10:32:10;;;;;;;13.65;5.60;;;;;;;18.48;77.60;102231.94;10455672;28;20103;-64
2021/07/16 10:37:13;;;;;;;20.67;6.57;;;;;;;18.08;78.63;102233.78;10438763;28;20099;-64
2021/07/16 10:42:31;;;;;;;24.13;6.28;;;;;;;18.50;75.86;102237.97;10456251;28;20056;-63
2021/07/16 10:47:47;;;;;;;17.58;5.88;;;;;;;19.27;73.96;102231.81;10456267;28;20507;-63
2021/07/16 10:52:51;;;;;;;25.05;7.10;;;;;;;20.00;74.41;102222.09;10456291;28;20547;-63
2021/07/16 10:57:53;;;;;;;24.98;6.47;;;;;;;20.37;71.84;102200.66;10461462;28;20507;-64
2021/07/16 11:03:09;;;;;;;25.15;6.13;;;;;;;20.83;67.38;102221.09;10464152;28;20055;-64
2021/07/16 11:08:34;;;;;;;18.27;6.03;;;;;;;19.71;71.85;102229.53;10464717;28;20056;-63
2021/07/16 11:13:44;;;;;;;22.63;7.20;;;;;;;18.87;73.25;102222.19;10464438;28;20056;-63
2021/07/16 11:18:53;;;;;;;18.13;4.97;;;;;;;18.96;73.50;102231.31;10463725;28;20120;-63
2021/07/16 11:23:55;;;;;;;26.48;5.72;;;;;;;19.59;72.83;102239.25;10463931;28;20049;-64
2021/07/16 11:28:58;;;;;;;20.92;6.18;;;;;;;18.86;75.05;102239.09;10462305;28;20045;-64
2021/07/16 11:34:01;;;;;;;18.33;4.97;;;;;;;18.79;73.63;102245.72;10462436;28;20041;-63
2021/07/16 11:39:03;;;;;;;18.42;5.68;;;;;;;18.81;74.55;102248.28;10463029;28;20071;-63
2021/07/16 11:44:06;;;;;;;19.48;5.55;;;;;;;18.79;75.41;102247.56;10462804;28;20527;-64
2021/07/16 11:49:23;;;;;;;27.33;8.35;;;;;;;18.87;75.19;102243.44;10462792;28;20049;-65
2021/07/16 11:54:30;;;;;;;22.38;6.20;;;;;;;18.71;74.77;102240.97;10461619;28;20045;-64
2021/07/16 11:59:32;;;;;;;21.55;6.25;;;;;;;19.45;74.44;102240.25;10460887;28;20049;-63
2021/07/16 12:04:36;;;;;;;22.92;6.68;;;;;;;18.46;74.06;102247.13;10462491;28;20080;-63
2021/07/16 12:09:42;;;;;;;21.30;7.28;;;;;;;19.21;74.55;102251.66;10460620;28;20049;-63
2021/07/16 12:14:54;;;;;;;16.95;5.15;;;;;;;19.19;73.12;102258.91;10461121;28;20485;-64
2021/07/16 12:20:00;;;;;;;24.02;5.90;;;;;;;19.54;71.20;102257.34;10461212;28;20389;-63
2021/07/16 12:25:06;;;;;;;15.82;5.88;;;;;;;19.65;70.88;102265.34;10460705;28;20057;-62
2021/07/16 12:30:13;;;;;;;27.90;6.63;;;;;;;19.49;71.92;102268.28;10460002;28;20408;-64
2021/07/16 12:35:26;;;;;;;22.23;6.43;;;;;;;19.17;71.00;102259.97;10459591;28;20132;-64
2021/07/16 12:40:30;;;;;;;22.58;6.22;;;;;;;19.12;72.46;102266.44;10460812;28;20052;-65
2021/07/16 12:45:51;;;;;;;22.02;6.00;;;;;;;19.22;73.60;102257.84;10460480;28;20045;-63
2021/07/16 12:51:06;;;;;;;25.95;7.30;;;;;;;18.79;73.97;102255.50;10460036;28;20533;-63
2021/07/16 12:56:28;;;;;;;22.45;7.45;;;;;;;19.44;72.30;102249.19;10458821;28;20051;-63
2021/07/16 13:01:32;;;;;;;22.52;6.30;;;;;;;20.31;69.50;102236.56;10460234;28;20045;-65
2021/07/16 13:06:35;;;;;;;21.20;6.35;;;;;;;20.92;67.23;102238.97;10459552;28;20492;-63
2021/07/16 13:11:38;;;;;;;23.48;5.65;;;;;;;20.32;68.95;102240.91;10459081;28;20515;-65
2021/07/16 13:16:41;;;;;;;24.20;6.25;;;;;;;19.92;71.50;102245.72;10459164;28;20053;-65
2021/07/16 13:21:43;;;;;;;24.05;5.72;;;;;;;20.05;69.72;102249.16;10457406;28;20504;-64
2021/07/16 13:26:45;;;;;;;21.10;5.65;;;;;;;20.99;68.76;102242.00;10458706;28;20049;-63
2021/07/16 13:31:48;;;;;;;19.02;5.85;;;;;;;20.44;67.66;102254.25;10458884;28;20052;-63
2021/07/16 13:36:50;;;;;;;24.67;5.68;;;;;;;20.52;68.75;102252.69;10458552;28;20048;-63
2021/07/16 13:41:53;;;;;;;23.60;5.75;;;;;;;20.20;70.45;102247.16;10457205;28;20045;-64
2021/07/16 13:46:56;;;;;;;16.77;5.80;;;;;;;20.16;70.93;102251.88;10457972;28;20080;-63
2021/07/16 13:51:58;;;;;;;19.33;6.55;;;;;;;19.89;69.98;102253.94;10456802;28;20084;-65
2021/07/16 13:57:02;;;;;;;20.30;6.15;;;;;;;19.98;70.86;102253.25;10457733;28;20044;-63
2021/07/16 14:02:04;;;;;;;23.38;6.55;;;;;;;19.88;71.89;102260.22;10456159;28;20056;-65
2021/07/16 14:07:08;;;;;;;22.08;6.38;;;;;;;19.96;71.06;102249.88;10457253;28;20044;-63
2021/07/16 14:12:10;;;;;;;17.98;5.78;;;;;;;20.02;71.66;102250.25;10457136;28;20053;-64
2021/07/16 14:17:12;;;;;;;21.40;5.68;;;;;;;19.94;70.62;102244.66;10457039;28;20049;-63
2021/07/16 14:22:15;;;;;;;21.20;7.40;;;;;;;20.28;71.87;102251.94;10457250;28;20056;-63
2021/07/16 14:27:18;;;;;;;19.42;6.45;;;;;;;20.31;69.92;102246.34;10456632;28;20041;-64
2021/07/16 14:32:21;;;;;;;23.85;6.95;;;;;;;20.23;70.11;102250.44;10456409;28;20055;-63
2021/07/16 14:37:23;;;;;;;20.27;5.75;;;;;;;20.21;71.30;102247.06;10456457;28;20048;-63
2021/07/16 14:42:25;;;;;;;24.63;6.15;;;;;;;20.50;69.80;102256.44;10456292;28;20045;-64
2021/07/16 14:47:28;;;;;;;18.25;5.47;;;;;;;20.56;71.21;102254.16;10456404;28;20052;-65
2021/07/16 14:52:36;;;;;;;23.33;6.68;;;;;;;20.64;71.74;102250.94;10455250;28;20049;-63
2021/07/16 14:57:38;;;;;;;18.92;5.68;;;;;;;21.11;70.58;102250.84;10455965;28;20051;-63
2021/07/16 15:02:41;;;;;;;18.27;5.45;;;;;;;20.78;68.57;102256.03;10456106;28;20045;-65
2021/07/16 15:07:43;;;;;;;22.13;6.15;;;;;;;21.03;67.13;102242.59;10456019;28;20124;-63
2021/07/16 15:12:46;;;;;;;17.65;5.47;;;;;;;21.12;67.37;102247.22;10455722;28;20053;-62
2021/07/16 15:17:48;;;;;;;19.17;5.40;;;;;;;21.21;68.46;102227.00;10455792;28;20055;-62
2021/07/16 15:22:51;;;;;;;20.10;6.28;;;;;;;21.04;69.87;102241.66;10455693;28;20041;-62
2021/07/16 15:27:53;;;;;;;18.77;5.63;;;;;;;21.23;67.47;102228.56;10454992;28;20056;-61
2021/07/16 15:32:55;;;;;;;23.38;6.88;;;;;;;20.76;69.98;102233.16;10454254;28;20057;-63
2021/07/16 15:37:58;;;;;;;20.02;6.38;;;;;;;20.73;70.59;102230.75;10455257;28;20056;-64
2021/07/16 15:43:01;;;;;;;18.95;6.43;;;;;;;21.29;69.47;102222.72;10459089;28;20041;-63
2021/07/16 15:48:04;;;;;;;24.10;6.80;;;;;;;21.07;69.24;102225.44;10461492;28;20393;-63
2021/07/16 15:53:07;;;;;;;20.25;6.03;;;;;;;21.14;68.99;102224.81;10462713;28;20456;-63
2021/07/16 15:58:09;;;;;;;16.60;6.35;;;;;;;20.55;70.69;102223.19;10460928;28;20436;-62
2021/07/16 16:03:11;;;;;;;20.77;6.18;;;;;;;20.36;71.36;102220.28;10462140;28;20378;-61
2021/07/16 16:08:14;;;;;;;21.92;6.95;;;;;;;20.66;70.96;102222.41;10462410;28;20083;-63
2021/07/16 16:13:18;;;;;;;26.67;7.05;;;;;;;20.93;70.35;102216.72;10462003;28;20063;-63
2021/07/16 16:18:20;;;;;;;21.85;6.13;;;;;;;20.40;70.10;102222.56;10461516;28;20087;-62
2021/07/16 16:23:35;;;;;;;22.05;6.75;;;;;;;20.22;72.00;102229.28;10461774;28;20122;-63
2021/07/16 16:28:38;;;;;;;22.75;7.35;;;;;;;20.51;71.72;102226.19;10461011;28;20409;-63
2021/07/16 16:33:41;;;;;;;25.05;7.13;;;;;;;20.57;70.77;102231.91;10461119;28;20056;-63
2021/07/16 16:38:43;;;;;;;17.13;6.70;;;;;;;20.46;71.09;102231.03;10460732;28;20067;-63
2021/07/16 16:43:46;;;;;;;27.38;8.00;;;;;;;20.39;70.99;102233.31;10461098;28;20057;-64
2021/07/16 16:48:49;;;;;;;23.90;7.53;;;;;;;20.17;72.39;102232.31;10460065;28;20433;-63
2021/07/16 16:53:51;;;;;;;26.10;6.35;;;;;;;20.17;71.68;102242.94;10460102;28;20057;-63
2021/07/16 16:58:53;;;;;;;26.35;8.15;;;;;;;20.15;71.88;102250.16;10459837;28;20405;-63
2021/07/16 17:03:56;;;;;;;25.00;7.65;;;;;;;20.01;73.17;102253.03;10459790;28;20531;-63
2021/07/16 17:08:58;;;;;;;23.35;7.13;;;;;;;19.74;72.29;102258.56;10459318;28;20504;-63
2021/07/16 17:14:00;;;;;;;19.45;6.75;;;;;;;19.65;73.05;102270.69;10459505;28;20401;-62
2021/07/16 17:19:03;;;;;;;19.63;7.15;;;;;;;19.64;73.42;102271.66;10458100;28;20049;-63
2021/07/16 17:24:05;;;;;;;22.55;7.63;;;;;;;19.59;73.04;102266.66;10459360;28;20062;-62
2021/07/16 17:29:08;;;;;;;17.42;7.20;;;;;;;19.61;73.27;102272.72;10458675;28;20060;-62
2021/07/16 17:34:10;;;;;;;20.33;6.93;;;;;;;19.50;73.63;102277.94;10458627;28;20048;-63
2021/07/16 17:39:12;;;;;;;21.83;7.47;;;;;;;19.65;73.63;102281.31;10458316;28;20542;-62
2021/07/16 17:44:15;;;;;;;22.27;7.53;;;;;;;19.59;73.74;102287.09;10458065;28;20405;-62
2021/07/16 17:49:17;;;;;;;21.90;7.55;;;;;;;19.25;73.89;102276.22;10457978;28;20049;-62
2021/07/16 17:54:19;;;;;;;23.23;9.15;;;;;;;19.44;73.99;102284.56;10457751;28;20511;-63
2021/07/16 17:59:22;;;;;;;23.98;8.77;;;;;;;19.05;75.56;102278.47;10456543;28;20045;-62
2021/07/16 18:04:26;;;;;;;21.55;8.00;;;;;;;19.34;73.72;102274.72;10456776;28;20049;-64
2021/07/16 18:09:28;;;;;;;27.23;8.60;;;;;;;18.97;74.12;102282.63;10457516;28;20405;-62
2021/07/16 18:14:32;;;;;;;25.63;8.88;;;;;;;19.20;74.27;102297.78;10457150;28;20057;-63
2021/07/16 18:19:35;;;;;;;24.95;8.32;;;;;;;18.96;75.39;102295.00;10457440;28;20045;-62
2021/07/16 18:24:37;;;;;;;24.20;9.13;;;;;;;18.92;74.38;102296.19;10455642;28;20052;-62
2021/07/16 18:29:40;;;;;;;28.23;9.60;;;;;;;18.84;74.80;102296.72;10456530;28;20484;-63
2021/07/16 18:34:42;;;;;;;17.27;8.48;;;;;;;18.86;75.63;102296.59;10456587;28;20516;-63
2021/07/16 18:39:45;;;;;;;31.73;9.73;;;;;;;18.99;74.77;102302.75;10456418;28;20489;-64
2021/07/16 18:44:47;;;;;;;25.42;8.77;;;;;;;18.69;75.88;102292.44;10456167;28;20501;-62
2021/07/16 18:49:49;;;;;;;23.17;8.43;;;;;;;18.74;75.87;102299.13;10456043;28;20056;-62
2021/07/16 18:54:52;;;;;;;22.13;7.90;;;;;;;18.68;76.08;102315.47;10456078;28;20049;-63
2021/07/16 18:59:54;;;;;;;26.75;8.68;;;;;;;18.80;75.83;102318.25;10456465;28;20045;-62
2021/07/16 19:04:56;;;;;;;23.33;8.63;;;;;;;18.56;76.35;102330.41;10456049;28;20057;-63
2021/07/16 19:10:03;;;;;;;25.45;8.00;;;;;;;18.62;76.51;102322.97;10455356;28;20045;-62
2021/07/16 19:15:26;;;;;;;27.45;9.75;;;;;;;18.43;77.20;102333.97;10454665;28;20536;-62
2021/07/16 19:20:29;;;;;;;27.92;9.88;;;;;;;18.46;77.14;102336.41;10464383;28;20045;-64
2021/07/16 19:25:32;;;;;;;23.02;8.52;;;;;;;18.39;76.63;102338.63;10463631;28;20056;-63
2021/07/16 19:30:37;;;;;;;22.17;9.40;;;;;;;18.08;77.66;102345.94;10463546;28;20076;-62
2021/07/16 19:35:39;;;;;;;23.00;8.10;;;;;;;18.28;77.49;102352.59;10462737;28;20504;-62
2021/07/16 19:40:42;;;;;;;29.25;10.73;;;;;;;18.20;77.80;102363.69;10463543;28;20055;-63
2021/07/16 19:45:44;;;;;;;23.10;8.60;;;;;;;18.23;77.65;102367.94;10462626;28;20045;-63
2021/07/16 19:50:47;;;;;;;22.92;10.05;;;;;;;18.13;77.81;102375.63;10461476;28;20512;-63
2021/07/16 19:55:49;;;;;;;24.27;9.73;;;;;;;18.33;77.86;102387.59;10461382;28;20053;-62
2021/07/16 20:00:51;;;;;;;27.25;8.68;;;;;;;18.08;77.75;102388.34;10460744;28;20047;-61
2021/07/16 20:05:54;;;;;;;25.70;10.35;;;;;;;17.89;78.26;102390.47;10461266;28;20479;-63
2021/07/16 20:10:56;;;;;;;25.85;11.38;;;;;;;17.99;78.67;102391.59;10462183;28;20057;-62
2021/07/16 20:15:59;;;;;;;26.85;10.48;;;;;;;17.97;78.40;102402.28;10461820;28;20053;-62
2021/07/16 20:21:02;;;;;;;22.15;10.38;;;;;;;17.91;78.26;102400.00;10461523;28;20405;-63
2021/07/16 20:26:08;;;;;;;30.17;10.63;;;;;;;17.78;77.79;102391.94;10461130;28;20041;-62
2021/07/16 20:31:11;;;;;;;34.17;11.38;;;;;;;17.76;79.18;102388.53;10460404;28;20111;-62
2021/07/16 20:36:15;;;;;;;31.65;10.07;;;;;;;17.93;78.66;102392.81;10461129;28;20049;-62
2021/07/16 20:41:17;;;;;;;31.23;11.98;;;;;;;17.89;78.77;102393.13;10460700;28;20408;-62
2021/07/16 20:46:20;;;;;;;31.30;11.82;;;;;;;17.86;79.36;102404.72;10461182;28;20052;-63
2021/07/16 20:51:22;;;;;;;33.78;11.48;;;;;;;17.86;79.47;102409.19;10461042;28;20059;-62
2021/07/16 20:56:25;;;;;;;22.17;10.43;;;;;;;17.90;79.02;102398.31;10460505;28;20052;-63
2021/07/16 21:01:27;;;;;;;26.88;10.50;;;;;;;17.73;79.23;102404.63;10458856;28;20055;-63
2021/07/16 21:06:29;;;;;;;30.23;10.07;;;;;;;17.78;78.94;102397.25;10459662;28;20485;-62
2021/07/16 21:11:32;;;;;;;23.13;11.10;;;;;;;17.89;78.91;102414.31;10459890;28;20053;-62
2021/07/16 21:16:35;;;;;;;32.08;10.95;;;;;;;17.89;78.89;102411.69;10459815;28;20053;-62
2021/07/16 21:21:37;;;;;;;26.30;10.38;;;;;;;17.71;79.16;102418.94;10459324;28;20049;-61
2021/07/16 21:26:40;;;;;;;23.35;10.90;;;;;;;17.76;80.15;102412.38;10459543;28;20045;-63
2021/07/16 21:31:42;;;;;;;25.67;9.73;;;;;;;17.81;79.18;102418.25;10458627;28;20049;-63
2021/07/16 21:36:45;;;;;;;37.33;11.98;;;;;;;17.72;80.18;102416.19;10458635;28;20048;-62
2021/07/16 21:41:47;;;;;;;27.88;10.18;;;;;;;17.80;79.13;102431.59;10458529;28;20049;-62
2021/07/16 21:46:49;;;;;;;29.45;10.43;;;;;;;17.76;79.82;102420.34;10458925;28;20071;-62
2021/07/16 21:51:52;;;;;;;24.98;9.18;;;;;;;17.61;80.31;102422.13;10458928;28;20049;-62
2021/07/16 21:56:56;;;;;;;34.95;12.68;;;;;;;17.58;81.40;102424.97;10457667;28;20041;-62
2021/07/16 22:01:58;;;;;;;27.63;11.30;;;;;;;17.57;81.52;102423.28;10457694;28;20049;-62
2021/07/16 22:07:02;;;;;;;23.27;10.45;;;;;;;17.68;80.66;102429.72;10457455;28;20052;-63
2021/07/16 22:12:04;;;;;;;27.85;10.65;;;;;;;17.77;80.27;102422.06;10457152;28;20408;-65
2021/07/16 22:17:06;;;;;;;32.85;11.50;;;;;;;17.68;81.02;102419.97;10456122;28;20052;-62
2021/07/16 22:22:09;;;;;;;24.30;10.65;;;;;;;17.60;80.63;102432.81;10456975;28;20044;-63
2021/07/16 22:27:11;;;;;;;33.28;12.85;;;;;;;17.48;81.32;102417.69;10456874;28;20049;-62
2021/07/16 22:32:14;;;;;;;34.72;10.60;;;;;;;17.54;80.95;102423.47;10457266;28;20055;-61
2021/07/16 22:37:18;;;;;;;34.78;11.23;;;;;;;17.56;81.75;102415.44;10456581;28;20044;-61
2021/07/16 22:42:20;;;;;;;32.50;11.65;;;;;;;17.51;81.80;102415.69;10456834;28;20139;-61
2021/07/16 22:47:23;;;;;;;26.23;12.13;;;;;;;17.61;81.31;102416.00;10456295;28;20045;-64
2021/07/16 22:52:25;;;;;;;34.50;11.95;;;;;;;17.48;82.11;102426.47;10458781;28;20059;-62
2021/07/16 22:57:28;;;;;;;30.02;11.63;;;;;;;17.57;81.92;102423.28;10464690;28;20055;-63